createdAt,value
2017-10-13T00:02:00.558Z,9.40
2017-10-13T00:04:26.610Z,11.70
2017-10-13T00:06:52.590Z,10.00
2017-10-13T00:09:27.075Z,9.90
2017-10-13T00:11:55.252Z,9.97
2017-10-13T00:14:24.082Z,9.50
2017-10-13T00:16:55.216Z,10.23
2017-10-13T00:19:23.256Z,9.33
2017-10-13T00:21:50.471Z,10.90
2017-10-13T00:24:18.802Z,9.43
2017-10-13T00:26:46.013Z,9.80
2017-10-13T00:29:13.217Z,9.17
2017-10-13T00:31:40.731Z,9.33
2017-10-13T00:34:06.703Z,9.17
2017-10-13T00:36:32.635Z,10.03
2017-10-13T00:38:58.645Z,9.63
2017-10-13T00:41:24.576Z,10.07
2017-10-13T00:43:50.507Z,10.27
2017-10-13T00:46:16.721Z,9.40
2017-10-13T00:48:43.459Z,9.70
2017-10-13T00:51:09.484Z,8.93
2017-10-13T00:53:35.508Z,9.63
2017-10-13T00:56:01.518Z,8.50
2017-10-13T00:58:27.490Z,10.23
2017-10-13T01:00:54.268Z,10.20
2017-10-13T01:03:20.212Z,10.33
2017-10-13T01:05:46.155Z,10.33
2017-10-13T01:08:12.092Z,10.47
2017-10-13T01:10:38.075Z,10.50
2017-10-13T01:13:04.012Z,10.23
2017-10-13T01:15:30.020Z,10.10
2017-10-13T01:17:56.751Z,9.73
2017-10-13T01:20:22.681Z,10.50
2017-10-13T01:22:48.613Z,10.30
2017-10-13T01:25:14.579Z,10.10
2017-10-13T01:27:40.740Z,10.70
2017-10-13T01:30:06.739Z,9.57
2017-10-13T01:32:33.055Z,9.87
2017-10-13T01:34:58.992Z,9.20
2017-10-13T01:37:25.159Z,10.87
2017-10-13T01:39:51.103Z,9.83
2017-10-13T01:42:17.020Z,10.50
2017-10-13T01:44:42.956Z,10.10
2017-10-13T01:47:08.891Z,9.17
2017-10-13T01:49:34.831Z,10.10
2017-10-13T01:52:00.784Z,10.40
2017-10-13T01:54:26.743Z,10.00
2017-10-13T01:56:52.696Z,10.47
2017-10-13T01:59:18.649Z,9.87
2017-10-13T02:01:44.560Z,10.53
2017-10-13T02:04:10.491Z,10.03
2017-10-13T02:06:37.178Z,9.73
2017-10-13T02:09:03.150Z,10.17
2017-10-13T02:11:29.131Z,10.60
2017-10-13T02:13:55.061Z,9.23
2017-10-13T02:16:21.780Z,10.20
2017-10-13T02:18:47.720Z,10.87
2017-10-13T02:21:13.824Z,10.67
2017-10-13T02:23:39.745Z,10.27
2017-10-13T02:26:05.667Z,10.43
2017-10-13T02:28:31.595Z,9.67
2017-10-13T02:30:57.539Z,10.07
2017-10-13T02:33:24.227Z,11.30
2017-10-13T02:35:50.167Z,10.07
2017-10-13T02:38:16.140Z,10.40
2017-10-13T02:40:42.100Z,9.60
2017-10-13T02:43:08.052Z,11.27
2017-10-13T02:45:34.011Z,11.13
2017-10-13T02:48:00.008Z,10.47
2017-10-13T02:50:25.919Z,10.00
2017-10-13T02:52:52.644Z,11.00
2017-10-13T02:55:18.647Z,11.67
2017-10-13T02:57:44.589Z,11.00
2017-10-13T03:00:10.506Z,11.47
2017-10-13T03:02:36.413Z,11.93
2017-10-13T03:05:02.443Z,12.20
2017-10-13T03:07:28.442Z,11.83
2017-10-13T03:09:54.394Z,11.30
2017-10-13T03:12:20.323Z,11.70
2017-10-13T03:14:46.222Z,11.13
2017-10-13T03:17:12.155Z,10.57
2017-10-13T03:19:38.067Z,12.20
2017-10-13T03:22:03.986Z,12.43
2017-10-13T03:24:29.972Z,11.57
2017-10-13T03:26:55.918Z,11.20
2017-10-13T03:29:21.844Z,12.27
2017-10-13T03:31:47.785Z,11.77
2017-10-13T03:34:13.728Z,11.73
2017-10-13T03:36:39.729Z,12.43
2017-10-13T03:39:06.452Z,11.30
2017-10-13T03:41:32.428Z,12.47
2017-10-13T03:43:58.440Z,12.97
2017-10-13T03:46:24.425Z,11.70
2017-10-13T03:48:50.347Z,11.03
2017-10-13T03:51:16.271Z,12.97
2017-10-13T03:53:42.216Z,11.97
2017-10-13T03:56:08.506Z,11.40
2017-10-13T03:58:34.419Z,10.77
2017-10-13T04:01:00.391Z,11.87
2017-10-13T04:03:26.368Z,11.97
2017-10-13T04:05:52.286Z,11.40
2017-10-13T04:08:18.211Z,12.60
2017-10-13T04:10:44.118Z,12.90
2017-10-13T04:13:10.066Z,11.67
2017-10-13T04:15:35.975Z,12.03
2017-10-13T04:18:02.066Z,12.03
2017-10-13T04:20:28.036Z,12.30
2017-10-13T04:22:53.955Z,11.43
2017-10-13T04:25:19.866Z,11.40
2017-10-13T04:27:45.807Z,11.53
2017-10-13T04:30:11.719Z,11.47
2017-10-13T04:32:37.679Z,12.27
2017-10-13T04:35:03.611Z,14.00
2017-10-13T04:37:29.668Z,13.00
2017-10-13T04:39:55.895Z,13.50
2017-10-13T04:42:21.909Z,12.80
2017-10-13T04:44:47.876Z,13.53
2017-10-13T04:47:13.851Z,15.40
2017-10-13T04:49:39.807Z,15.27
2017-10-13T04:52:05.747Z,14.40
2017-10-13T04:54:31.704Z,14.13
2017-10-13T04:56:57.664Z,14.67
2017-10-13T04:59:23.605Z,15.53
2017-10-13T05:01:49.524Z,14.10
2017-10-13T05:04:15.443Z,15.47
2017-10-13T05:06:41.410Z,15.50
2017-10-13T05:09:07.346Z,15.67
2017-10-13T05:11:34.075Z,15.50
2017-10-13T05:14:00.102Z,14.20
2017-10-13T05:16:26.445Z,16.80
2017-10-13T05:18:52.367Z,15.37
2017-10-13T05:21:18.507Z,14.70
2017-10-13T05:23:44.446Z,15.77
2017-10-13T05:26:10.442Z,17.33
2017-10-13T05:28:37.162Z,16.70
2017-10-13T05:31:03.196Z,15.23
2017-10-13T05:33:29.173Z,15.57
2017-10-13T05:35:55.215Z,17.40
2017-10-13T05:38:21.152Z,15.77
2017-10-13T05:40:47.092Z,15.70
2017-10-13T05:43:13.838Z,14.73
2017-10-13T05:45:39.987Z,14.90
2017-10-13T05:48:05.960Z,13.83
2017-10-13T05:50:31.972Z,14.87
2017-10-13T05:52:57.915Z,14.47
2017-10-13T05:55:24.636Z,16.50
2017-10-13T05:57:50.647Z,15.47
2017-10-13T06:00:16.645Z,15.20
2017-10-13T06:02:42.665Z,15.63
2017-10-13T06:05:08.624Z,15.90
2017-10-13T06:07:34.631Z,15.33
2017-10-13T06:10:00.685Z,15.20
2017-10-13T06:12:26.682Z,15.40
2017-10-13T06:14:52.652Z,14.57
2017-10-13T06:17:18.660Z,15.90
2017-10-13T06:19:44.673Z,15.60
2017-10-13T06:22:11.403Z,16.37
2017-10-13T06:24:37.346Z,16.10
2017-10-13T06:27:03.310Z,17.93
2017-10-13T06:29:29.268Z,16.83
2017-10-13T06:31:55.234Z,17.40
2017-10-13T06:34:21.215Z,15.47
2017-10-13T06:36:47.301Z,17.47
2017-10-13T06:39:13.263Z,16.00
2017-10-13T06:41:39.286Z,16.50
2017-10-13T06:44:05.232Z,17.20
2017-10-13T06:46:31.240Z,17.23
2017-10-13T06:48:57.237Z,18.73
2017-10-13T06:51:23.222Z,16.87
2017-10-13T06:53:49.183Z,19.17
2017-10-13T06:56:15.230Z,19.03
2017-10-13T06:58:41.219Z,18.50
2017-10-13T07:01:07.264Z,17.87
2017-10-13T07:03:33.272Z,20.30
2017-10-13T07:05:59.314Z,19.33
2017-10-13T07:08:26.039Z,18.47
2017-10-13T07:10:51.968Z,18.97
2017-10-13T07:13:18.706Z,17.90
2017-10-13T07:15:44.713Z,18.40
2017-10-13T07:18:10.669Z,19.60
2017-10-13T07:20:36.614Z,19.67
2017-10-13T07:23:02.603Z,18.57
2017-10-13T07:25:29.339Z,17.80
2017-10-13T07:27:55.480Z,18.67
2017-10-13T07:30:22.328Z,17.03
2017-10-13T07:32:48.278Z,17.43
2017-10-13T07:35:14.422Z,17.77
2017-10-13T07:37:40.457Z,16.33
2017-10-13T07:40:06.431Z,16.97
2017-10-13T07:42:32.367Z,16.87
2017-10-13T07:44:58.334Z,15.87
2017-10-13T07:47:24.271Z,16.33
2017-10-13T07:49:50.392Z,16.73
2017-10-13T07:52:16.512Z,16.40
2017-10-13T07:54:42.567Z,16.17
2017-10-13T07:57:08.548Z,16.47
2017-10-13T07:59:34.580Z,16.57
2017-10-13T08:02:00.577Z,14.87
2017-10-13T08:04:26.507Z,16.43
2017-10-13T08:06:52.478Z,15.60
2017-10-13T08:09:18.440Z,15.37
2017-10-13T08:11:44.387Z,16.50
2017-10-13T08:14:10.399Z,17.23
2017-10-13T08:16:37.264Z,16.73
2017-10-13T08:19:03.224Z,16.63
2017-10-13T08:21:29.206Z,17.20
2017-10-13T08:23:55.228Z,17.50
2017-10-13T08:26:21.191Z,16.67
2017-10-13T08:28:47.184Z,16.13
2017-10-13T08:31:13.395Z,17.13
2017-10-13T08:33:40.125Z,17.30
2017-10-13T08:36:06.106Z,17.10
2017-10-13T08:38:34.793Z,17.67
2017-10-13T08:41:00.922Z,16.43
2017-10-13T08:43:28.032Z,16.20
2017-10-13T08:45:53.984Z,15.87
2017-10-13T08:48:20.062Z,15.53
2017-10-13T08:50:48.213Z,15.13
2017-10-13T08:53:15.254Z,14.00
2017-10-13T08:55:41.457Z,14.67
2017-10-13T08:58:07.490Z,15.73
2017-10-13T09:00:34.689Z,15.07
2017-10-13T09:03:01.626Z,15.33
2017-10-13T09:05:27.652Z,14.67
2017-10-13T09:07:53.686Z,14.73
2017-10-13T09:10:20.163Z,15.10
2017-10-13T09:12:46.183Z,14.10
2017-10-13T09:15:12.223Z,15.37
2017-10-13T09:17:38.211Z,14.00
2017-10-13T09:20:04.227Z,13.73
2017-10-13T09:22:36.215Z,14.30
2017-10-13T09:25:02.315Z,14.50
2017-10-13T09:27:28.279Z,13.93
2017-10-13T09:29:54.276Z,14.30
2017-10-13T09:32:20.237Z,13.07
2017-10-13T09:34:46.331Z,14.43
2017-10-13T09:37:12.351Z,12.63
2017-10-13T09:39:38.305Z,12.30
2017-10-13T09:42:04.330Z,13.83
2017-10-13T09:44:30.321Z,13.17
2017-10-13T09:46:56.432Z,14.43
2017-10-13T09:49:22.468Z,13.33
2017-10-13T09:51:48.428Z,12.10
2017-10-13T09:54:14.424Z,12.40
2017-10-13T09:56:41.188Z,12.93
2017-10-13T09:59:07.184Z,12.67
2017-10-13T10:01:33.224Z,12.10
2017-10-13T10:04:01.288Z,12.50
2017-10-13T10:06:27.217Z,11.67
2017-10-13T10:08:53.935Z,13.13
2017-10-13T10:11:20.016Z,13.03
2017-10-13T10:13:45.983Z,11.97
2017-10-13T10:16:11.982Z,13.03
2017-10-13T10:18:37.988Z,12.40
2017-10-13T10:21:03.954Z,12.10
2017-10-13T10:23:30.695Z,12.23
2017-10-13T10:25:57.545Z,12.60
2017-10-13T10:28:23.560Z,12.60
2017-10-13T10:30:50.309Z,11.40
2017-10-13T10:33:17.072Z,11.77
2017-10-13T10:35:43.016Z,10.37
2017-10-13T10:38:09.086Z,11.07
2017-10-13T10:40:35.858Z,11.33
2017-10-13T10:43:01.936Z,11.50
2017-10-13T10:45:27.981Z,12.30
2017-10-13T10:47:53.985Z,11.20
2017-10-13T10:50:20.099Z,12.60
2017-10-13T10:52:46.264Z,11.17
2017-10-13T10:55:12.339Z,10.37
2017-10-13T10:57:38.363Z,9.63
2017-10-13T11:00:04.303Z,9.70
2017-10-13T11:02:30.456Z,11.23
2017-10-13T11:07:30.509Z,11.00
2017-10-13T11:09:57.609Z,10.50
2017-10-13T11:17:25.440Z,10.27
2017-10-13T11:29:55.999Z,10.40
2017-10-13T11:32:23.190Z,11.47
2017-10-13T11:39:53.223Z,11.50
2017-10-13T11:42:21.103Z,12.30
2017-10-13T11:47:19.897Z,11.97
2017-10-13T11:49:49.740Z,12.57
2017-10-13T11:52:19.555Z,12.70
2017-10-13T11:54:47.932Z,12.97
2017-10-13T11:57:17.955Z,14.67
2017-10-13T11:59:44.902Z,11.37
2017-10-13T12:02:13.233Z,11.67
2017-10-13T12:07:10.836Z,11.30
2017-10-13T12:12:09.765Z,12.33
2017-10-13T12:19:40.203Z,11.40
2017-10-13T12:22:07.937Z,11.87
2017-10-13T12:24:34.337Z,11.13
2017-10-13T12:29:33.229Z,10.20
2017-10-13T12:32:02.404Z,11.17
2017-10-13T12:39:31.770Z,10.17
2017-10-13T12:41:58.151Z,11.03
2017-10-13T12:46:55.935Z,12.13
2017-10-13T12:51:53.466Z,13.53
2017-10-13T12:56:52.037Z,10.70
2017-10-13T12:59:18.859Z,10.67
2017-10-13T13:14:21.613Z,10.47
2017-10-13T13:16:48.468Z,9.43
2017-10-13T13:19:14.467Z,9.00
2017-10-13T13:21:40.811Z,9.30
2017-10-13T13:24:06.758Z,9.27
2017-10-13T13:26:32.933Z,9.10
2017-10-13T13:29:01.862Z,7.80
2017-10-13T13:31:28.005Z,8.67
2017-10-13T13:33:54.308Z,8.80
2017-10-13T13:36:21.054Z,7.33
2017-10-13T13:38:47.232Z,8.20
2017-10-13T13:41:13.194Z,8.03
2017-10-13T13:43:39.821Z,7.60
2017-10-13T13:46:06.755Z,9.00
2017-10-13T13:48:33.043Z,8.30
2017-10-13T13:51:01.789Z,8.77
2017-10-13T13:53:28.873Z,9.80
2017-10-13T13:55:55.220Z,8.20
2017-10-13T14:00:53.666Z,7.97
2017-10-13T14:05:53.593Z,7.57
2017-10-13T14:08:21.250Z,7.57
2017-10-13T14:10:47.198Z,7.87
2017-10-13T14:13:13.857Z,8.20
2017-10-13T14:15:39.954Z,7.80
2017-10-13T14:18:06.096Z,7.80
2017-10-13T14:20:32.892Z,7.70
2017-10-13T14:22:59.944Z,8.57
2017-10-13T14:25:25.905Z,8.40
2017-10-13T14:27:52.017Z,7.50
2017-10-13T14:30:18.127Z,7.97
2017-10-13T14:32:44.386Z,7.03
2017-10-13T14:35:10.497Z,8.50
2017-10-13T14:37:36.437Z,7.60
2017-10-13T14:40:02.769Z,7.63
2017-10-13T14:42:29.571Z,6.67
2017-10-13T14:44:56.570Z,7.50
2017-10-13T14:47:22.574Z,8.03
2017-10-13T14:49:49.338Z,9.30
2017-10-13T14:52:15.320Z,9.57
2017-10-13T14:54:41.486Z,7.90
2017-10-13T14:57:07.512Z,6.93
2017-10-13T14:59:33.607Z,6.30
2017-10-13T15:01:59.661Z,6.50
2017-10-13T15:04:25.635Z,6.93
2017-10-13T15:06:51.658Z,7.00
2017-10-13T15:09:17.732Z,7.70
2017-10-13T15:11:44.014Z,6.30
2017-10-13T15:14:10.084Z,7.90
2017-10-13T15:16:36.764Z,7.47
2017-10-13T15:19:02.723Z,7.03
2017-10-13T15:21:28.676Z,7.40
2017-10-13T15:23:55.001Z,6.60
2017-10-13T15:26:26.914Z,6.80
2017-10-13T15:28:59.099Z,6.50
2017-10-13T15:31:31.790Z,5.80
2017-10-13T15:34:04.085Z,5.63
2017-10-13T15:36:30.103Z,7.00
2017-10-13T15:39:02.100Z,5.30
2017-10-13T15:41:36.675Z,6.20
2017-10-13T15:44:08.870Z,5.87
2017-10-13T15:46:43.754Z,5.80
2017-10-13T15:49:16.607Z,6.17
2017-10-13T15:51:48.743Z,5.50
2017-10-13T15:54:14.774Z,6.33
2017-10-13T15:56:40.793Z,5.80
2017-10-13T15:59:06.890Z,6.00
2017-10-13T16:01:32.922Z,6.23
2017-10-13T16:03:58.967Z,9.97
2017-10-13T16:06:24.955Z,5.40
2017-10-13T16:08:50.933Z,6.03
2017-10-13T16:11:16.946Z,7.13
2017-10-13T16:13:42.920Z,7.10
2017-10-13T16:16:09.046Z,7.03
2017-10-13T16:18:35.945Z,7.30
2017-10-13T16:21:02.073Z,7.13
2017-10-13T16:23:28.165Z,7.30
2017-10-13T16:25:54.101Z,8.50
2017-10-13T16:28:20.076Z,7.13
2017-10-13T16:30:46.848Z,8.00
2017-10-13T16:33:12.815Z,8.17
2017-10-13T16:35:38.932Z,8.60
2017-10-13T16:38:04.870Z,8.17
2017-10-13T16:40:30.870Z,8.47
2017-10-13T16:42:56.863Z,10.10
2017-10-13T16:45:22.886Z,8.30
2017-10-13T16:47:48.927Z,8.53
2017-10-13T16:50:14.859Z,9.50
2017-10-13T16:52:41.018Z,7.73
2017-10-13T16:55:06.987Z,8.60
2017-10-13T16:57:33.696Z,9.20
2017-10-13T16:59:59.656Z,9.00
2017-10-13T17:02:25.629Z,8.80
2017-10-13T17:04:51.580Z,7.20
2017-10-13T17:07:18.228Z,8.47
2017-10-13T17:09:44.143Z,8.10
2017-10-13T17:12:10.078Z,8.30
2017-10-13T17:14:36.789Z,9.70
2017-10-13T17:17:03.939Z,9.00
2017-10-13T17:19:29.880Z,11.03
2017-10-13T17:21:55.900Z,11.20
2017-10-13T17:24:21.932Z,10.60
2017-10-13T17:26:47.973Z,10.07
2017-10-13T17:29:15.251Z,10.13
2017-10-13T17:31:42.083Z,10.30
2017-10-13T17:34:08.622Z,8.73
2017-10-13T17:36:34.581Z,10.37
2017-10-13T17:39:00.861Z,9.97
2017-10-13T17:41:27.670Z,10.30
2017-10-13T17:43:53.627Z,10.27
2017-10-13T17:46:19.850Z,10.40
2017-10-13T17:48:45.768Z,10.00
2017-10-13T17:51:12.491Z,9.83
2017-10-13T17:53:38.964Z,10.50
2017-10-13T17:56:05.059Z,10.50
2017-10-13T17:58:30.997Z,11.50
2017-10-13T18:00:57.716Z,9.93
2017-10-13T18:03:23.731Z,9.53
2017-10-13T18:05:49.819Z,11.07
2017-10-13T18:08:15.782Z,10.40
2017-10-13T18:10:41.729Z,10.73
2017-10-13T18:13:07.695Z,10.80
2017-10-13T18:15:33.965Z,10.67
2017-10-13T18:17:59.903Z,9.80
2017-10-13T18:20:25.867Z,10.13
2017-10-13T18:22:51.791Z,10.37
2017-10-13T18:25:17.762Z,10.30
2017-10-13T18:27:43.670Z,9.40
2017-10-13T18:30:10.346Z,8.73
2017-10-13T18:32:36.946Z,9.77
2017-10-13T18:35:03.601Z,10.33
2017-10-13T18:37:29.605Z,10.40
2017-10-13T18:39:56.571Z,10.00
2017-10-13T18:42:22.510Z,10.30
2017-10-13T18:44:48.871Z,10.10
2017-10-13T18:47:14.886Z,9.13
2017-10-13T18:49:40.829Z,10.10
2017-10-13T18:52:06.804Z,10.20
2017-10-13T18:54:32.823Z,10.10
2017-10-13T18:56:58.831Z,10.40
2017-10-13T18:59:24.801Z,10.57
2017-10-13T19:01:51.041Z,10.00
2017-10-13T19:04:17.066Z,10.50
2017-10-13T19:06:44.037Z,10.30
2017-10-13T19:09:10.201Z,9.90
2017-10-13T19:11:39.425Z,9.33
2017-10-13T19:14:06.030Z,10.07
2017-10-13T19:16:32.024Z,10.97
2017-10-13T19:18:58.143Z,10.03
2017-10-13T19:21:25.533Z,9.47
2017-10-13T19:23:51.595Z,10.30
2017-10-13T19:26:18.024Z,9.97
2017-10-13T19:28:44.159Z,12.10
2017-10-13T19:31:10.304Z,12.27
2017-10-13T19:33:37.269Z,11.20
2017-10-13T19:36:04.845Z,10.70
2017-10-13T19:38:30.830Z,11.70
2017-10-13T19:40:57.146Z,13.23
2017-10-13T19:43:23.221Z,12.13
2017-10-13T19:45:49.562Z,11.37
2017-10-13T19:48:17.162Z,11.80
2017-10-13T19:50:43.985Z,11.53
2017-10-13T19:53:11.633Z,12.30
2017-10-13T19:58:09.222Z,12.23
2017-10-13T20:00:35.479Z,11.30
2017-10-13T20:03:02.709Z,10.70
2017-10-13T20:05:29.627Z,12.03
2017-10-13T20:07:55.605Z,12.47
2017-10-13T20:10:21.874Z,11.80
2017-10-13T20:12:51.354Z,12.90
2017-10-13T20:15:19.610Z,10.87
2017-10-13T20:17:45.944Z,10.83
2017-10-13T20:20:12.069Z,10.90
2017-10-13T20:22:38.043Z,11.57
2017-10-13T20:25:04.333Z,11.00
2017-10-13T20:27:31.286Z,11.17
2017-10-13T20:29:58.131Z,10.57
2017-10-13T20:32:25.129Z,10.30
2017-10-13T20:34:51.261Z,10.60
2017-10-13T20:37:17.572Z,10.90
2017-10-13T20:39:43.517Z,13.80
2017-10-13T20:42:09.484Z,14.10
2017-10-13T20:44:35.526Z,12.07
2017-10-13T20:47:01.562Z,11.10
2017-10-13T20:49:27.624Z,13.80
2017-10-13T20:51:53.572Z,10.77
2017-10-13T20:54:19.592Z,11.63
2017-10-13T20:56:46.553Z,10.70
2017-10-13T20:59:12.493Z,9.70
2017-10-13T21:01:39.406Z,10.70
2017-10-13T21:04:05.379Z,10.10
2017-10-13T21:06:32.282Z,12.67
2017-10-13T21:08:58.902Z,11.10
2017-10-13T21:11:24.847Z,11.67
2017-10-13T21:13:50.806Z,10.33
2017-10-13T21:16:17.028Z,12.30
2017-10-13T21:18:44.032Z,11.17
2017-10-13T21:21:10.142Z,12.43
2017-10-13T21:23:36.500Z,11.40
2017-10-13T21:26:02.486Z,11.50
2017-10-13T21:28:28.433Z,11.80
2017-10-13T21:30:54.481Z,12.67
2017-10-13T21:33:20.994Z,11.60
2017-10-13T21:35:47.181Z,10.90
2017-10-13T21:38:13.120Z,10.10
2017-10-13T21:40:39.124Z,10.70
2017-10-13T21:43:05.572Z,10.07
2017-10-13T21:45:31.508Z,10.80
2017-10-13T21:47:57.450Z,12.00
2017-10-13T21:50:23.471Z,10.00
2017-10-13T21:52:50.197Z,11.73
2017-10-13T21:55:17.902Z,9.77
2017-10-13T21:57:44.011Z,10.17
2017-10-13T22:00:10.051Z,10.10
2017-10-13T22:02:36.311Z,10.20
2017-10-13T22:05:06.295Z,10.90
2017-10-13T22:07:32.290Z,10.63
2017-10-13T22:09:58.967Z,9.20
2017-10-13T22:12:32.576Z,10.20
2017-10-13T22:14:58.534Z,10.63
2017-10-13T22:17:24.480Z,11.20
2017-10-13T22:19:50.492Z,10.27
2017-10-13T22:22:16.504Z,10.43
2017-10-13T22:24:43.881Z,12.30
2017-10-13T22:27:09.862Z,10.93
2017-10-13T22:29:35.869Z,10.80
2017-10-13T22:32:01.828Z,10.40
2017-10-13T22:34:27.866Z,10.90
2017-10-13T22:36:53.832Z,10.90
2017-10-13T22:39:19.798Z,11.17
2017-10-13T22:41:46.531Z,10.10
2017-10-13T22:44:12.468Z,10.80
2017-10-13T22:46:39.188Z,11.03
2017-10-13T22:49:05.111Z,11.30
2017-10-13T22:51:31.264Z,10.47
2017-10-13T22:53:57.217Z,10.03
2017-10-13T22:56:24.022Z,11.53
2017-10-13T22:58:50.683Z,10.47
2017-10-13T23:01:16.737Z,10.30
2017-10-13T23:03:42.697Z,12.37
2017-10-13T23:06:08.739Z,10.13
2017-10-13T23:08:34.695Z,11.00
2017-10-13T23:11:01.536Z,11.97
2017-10-13T23:13:27.638Z,11.53
2017-10-13T23:15:53.755Z,10.43
2017-10-13T23:18:20.329Z,10.80
2017-10-13T23:20:46.372Z,11.30
2017-10-13T23:23:12.363Z,10.80
2017-10-13T23:25:38.301Z,11.43
2017-10-13T23:28:04.296Z,10.23
2017-10-13T23:30:30.244Z,10.50
2017-10-13T23:32:56.226Z,11.37
2017-10-13T23:35:22.190Z,10.60
2017-10-13T23:37:48.131Z,9.80
2017-10-13T23:40:14.079Z,9.90
2017-10-13T23:42:40.868Z,11.33
2017-10-13T23:45:07.863Z,10.63
2017-10-13T23:47:33.845Z,10.37
2017-10-13T23:49:59.829Z,10.93
2017-10-13T23:52:25.785Z,10.50
2017-10-13T23:54:51.771Z,11.10
2017-10-13T23:57:17.724Z,10.30
2017-10-13T23:59:43.723Z,10.63
